Port Huron, MI

11:14 EST 25. Leden 2015 (GMT -0500)
Port Huron Township | Change Station
CLOSE
Current Station
Osobní povětrnostní stanice
Location: Port Huron, MI
Nadmořská výška: 594 ft
Poblíž povětrnostní stanice

Výška 594 ft 43.00 °N, 82.48 °W | Updated 13 minutes ago

Zataženo
Zataženo
22.5 °F
Pocit jako 22 °F
S
3.0
Vítr proměnlivý Vítr od SSV
Gusts 9.0 mil/h

Dnes
Vysoké -- | Nízké -- °F
--% Možnost srážek
Včera
Vysoké -- | Nízké -- °F
Precip. -- inčů
7:51 AM 5:33 PM
Dorůstající srpek, 33% visible
Tlak 29.93 inčů
Viditelnost 10.0 mílí
Zataženo Zataženo 2200 ft
Ochlazování větrem 22 °F
Rosný bod 18 °F
Vlhkost 82%
Dešťové srážky 0.00 inčů
Sněhová pokrývka Není k dispozici
UV záření 1 ze 12
Pyl .10 ze 12
Kvalita ovzduší Není k dispozici
Flu Activity Není k dispozici
METAR KPHN 251558Z AUTO 03011G18KT 10SM OVC022 M05/M09 A2993 RMK AO2

More Conditions Fewer Conditions

Tlak 29.93 inčů
Viditelnost 10.0 mílí
Zataženo Zataženo 2200 ft
Ochlazování větrem 22 °F
Rosný bod 18 °F
Vlhkost 82%
Dešťové srážky 0.00 inčů
Sněhová pokrývka Není k dispozici
UV záření 1 ze 12
Pyl .10 ze 12
Kvalita ovzduší Není k dispozici
Flu Activity Není k dispozici
METAR KPHN 251558Z AUTO 03011G18KT 10SM OVC022 M05/M09 A2993 RMK AO2

More Conditions Fewer Conditions

10-Day Weather Forecast

Almanac

Astronomie

Jan. 25, 2015 Východ Západ
Skutečný čas
Občanský soumrak
Námořní soumrak
Astronomický soumrak
Měsíc
Délka denního světla
Délka dne
Tomorrow will be .
, % of the Moon is Illuminated

Dnešní extrémy

State Highs State Lows

Community

WunderPhotos

Upload Photos

1,789,939 snímků staženo!

WunderBlogs® & News

Nearby

Kvalita ovzduší

  Kvalita ovzduší Index kvality ovzduší Polutant
Not available.

Výška sněhu

Station Hloubka Nadmořská výška

Seizmická činnost

Město Distance Mag. Čas & datum
Minimální zobrazený rozsah je 2.5.

Pobřežní teplota vody

Lokalita Teplota

Poblíž povětrnostní stanice